Terminal Aerodrome Forecast
Issued by NWS Quad Cities IA IL

Home | Current Version | Previous Version | Text Only | Print | Product List | Glossary On
Versions: 1 2 3 4 5 6 7 8 9 10 11 12 13 14 15 16 17 18 19 20 21 22 23
000
FTUS43 KDVN 241132
TAFMLI
TAF
KMLI 241132Z 2412/2512 VRB03KT P6SM OVC017
     FM241600 10008KT P6SM OVC019
     FM242200 11009KT P6SM OVC025 PROB30 2423/2503 5SM -SHRA BR
      OVC015
     FM250300 12012G20KT 5SM -RA BR OVC015
     FM250900 14008KT 3SM -DZ BR OVC004=

USA.gov is the U.S. government's official web portal to all federal, state and local government web resources and services.